logo
Search for airport 
image banner adimage banner adimage banner ad
image banner ad

LOXZ - Zeltweg

Located in District Murtal, Austria

ICAO - LOXZ, IATA -

Data provided by Airmate  

General information

Coordinates: N47°12'13" E14°44'45"
Elevation is 2264 feet MSL.
 
View others Airports in Styria

Operational data

Special qualification required
Current time UTC:
Current local time:
Weather
METAR: LOXZ 171750Z VRB02KT 9999 FEW040 BKN100 06/M01 Q1006
TAF: TAF LOXZ 171115Z 1712/1721 VRB03KT 9999 FEW030 SCT060 TEMPO 1712/1717 07012KT -SHRA SCT030 FEW035TCU BKN050 PROB30 TEMPO 1713/1715 VRB10G20KT 5000 TSRA FEW010 BKN030 FEW040CB
View NOTAMs / SUP AIP / TFR affecting this airport [VIEW]
Communications frequencies: [VIEW]

Runways:

RWY identifierQFULength (ft)Width (ft)SurfaceLDA (ft)
022854131UNK
202854131UNK
08L81°4856131GRS
26R261°4856131GRS
08R9022197UNK
26L9022197UNK

Airport contact information

Address: District Murtal Austria

Handlers

Magnum Fbo Signature Select

Magnum Fbo Signature Select

Other aviation service providers

Aviation club (not for profit)

Sportfliegergruppe Kondor

Sportfliegergruppe Kondor
flugschule@loxz.at+4369912337582

Satellite view of LOXZ